createdAt,value
2023-05-05T00:01:49.715Z,70.64
2023-05-05T00:04:57.985Z,70.64
2023-05-05T00:08:06.731Z,71.00
2023-05-05T00:11:15.298Z,71.14
2023-05-05T00:14:23.621Z,71.60
2023-05-05T00:17:33.499Z,71.95
2023-05-05T00:20:41.823Z,72.65
2023-05-05T00:23:49.989Z,71.71
2023-05-05T00:26:58.150Z,72.27
2023-05-05T00:30:08.397Z,73.07
2023-05-05T00:33:18.133Z,72.38
2023-05-05T00:36:26.319Z,72.74
2023-05-05T00:39:35.801Z,72.80
2023-05-05T00:42:46.978Z,73.32
2023-05-05T00:46:02.384Z,72.70
2023-05-05T00:49:12.555Z,74.31
2023-05-05T00:52:21.061Z,74.87
2023-05-05T00:55:30.296Z,75.04
2023-05-05T00:58:38.754Z,75.63
2023-05-05T01:01:47.279Z,76.25
2023-05-05T01:04:56.882Z,76.33
2023-05-05T01:08:30.605Z,77.01
2023-05-05T01:11:52.670Z,77.14
2023-05-05T01:15:11.992Z,77.53
2023-05-05T01:18:32.518Z,77.44
2023-05-05T01:21:50.892Z,78.02
2023-05-05T01:25:19.623Z,77.70
2023-05-05T01:28:46.523Z,77.98
2023-05-05T01:32:02.485Z,77.75
2023-05-05T01:35:19.627Z,78.04
2023-05-05T01:38:36.403Z,78.29
2023-05-05T01:41:50.191Z,78.16
2023-05-05T01:45:00.031Z,77.87
2023-05-05T01:48:12.678Z,77.88
2023-05-05T01:51:24.954Z,78.72
2023-05-05T01:54:35.624Z,79.35
2023-05-05T01:57:46.550Z,79.29
2023-05-05T02:00:58.659Z,79.34
2023-05-05T02:04:10.305Z,80.03
2023-05-05T02:07:20.840Z,79.80
2023-05-05T02:10:31.158Z,79.92
2023-05-05T02:13:43.158Z,80.62
2023-05-05T02:16:59.191Z,80.57
2023-05-05T02:20:13.638Z,80.58
2023-05-05T02:23:21.969Z,80.48
2023-05-05T02:26:34.110Z,79.95
2023-05-05T02:29:49.950Z,79.56
2023-05-05T02:33:07.424Z,79.66
2023-05-05T02:36:22.792Z,80.03
2023-05-05T02:39:43.590Z,79.42
2023-05-05T02:42:59.866Z,79.63
2023-05-05T02:46:12.359Z,80.02
2023-05-05T02:49:24.369Z,79.92
2023-05-05T02:52:40.991Z,80.66
2023-05-05T02:55:54.645Z,80.34
2023-05-05T02:59:16.486Z,80.63
2023-05-05T03:02:38.600Z,80.26
2023-05-05T03:05:57.253Z,80.49
2023-05-05T03:09:15.166Z,80.76
2023-05-05T03:12:38.511Z,80.72
2023-05-05T03:15:58.563Z,81.03
2023-05-05T03:19:12.341Z,80.16
2023-05-05T03:22:22.529Z,80.88
2023-05-05T03:25:48.625Z,80.26
2023-05-05T03:29:17.628Z,80.55
2023-05-05T03:32:27.227Z,80.67
2023-05-05T03:35:36.830Z,80.27
2023-05-05T03:38:48.231Z,79.87
2023-05-05T03:41:57.992Z,80.52
2023-05-05T03:45:10.284Z,79.97
2023-05-05T03:48:19.982Z,80.18
2023-05-05T03:51:29.441Z,80.23
2023-05-05T03:54:39.248Z,80.07
2023-05-05T03:57:49.189Z,79.93
2023-05-05T04:00:57.590Z,79.91
2023-05-05T04:04:06.689Z,80.43
2023-05-05T04:07:15.062Z,80.79
2023-05-05T04:10:23.343Z,80.43
2023-05-05T04:13:33.318Z,80.68
2023-05-05T04:16:42.050Z,81.06
2023-05-05T04:19:51.006Z,80.36
2023-05-05T04:23:00.541Z,79.96
2023-05-05T04:26:09.302Z,79.55
2023-05-05T04:29:19.840Z,78.47
2023-05-05T04:32:28.397Z,78.53
2023-05-05T04:35:37.028Z,78.37
2023-05-05T04:38:45.931Z,78.16
2023-05-05T04:41:54.268Z,78.16
2023-05-05T04:45:03.994Z,77.15
2023-05-05T04:48:12.983Z,77.37
2023-05-05T04:51:21.483Z,77.19
2023-05-05T04:54:29.797Z,76.85
2023-05-05T04:57:39.334Z,77.02
2023-05-05T05:00:49.017Z,76.98
2023-05-05T05:03:57.381Z,75.54
2023-05-05T05:07:05.917Z,75.37
2023-05-05T05:10:14.731Z,74.81
2023-05-05T05:13:23.227Z,73.98
2023-05-05T05:16:33.733Z,72.63
2023-05-05T05:19:42.090Z,72.37
2023-05-05T05:22:50.607Z,70.92
2023-05-05T05:26:01.505Z,66.81
2023-05-05T05:29:11.369Z,66.22
2023-05-05T05:32:21.422Z,65.13
2023-05-05T05:35:30.131Z,65.33
2023-05-05T05:38:38.561Z,65.13
2023-05-05T05:41:47.350Z,64.44
2023-05-05T05:44:56.967Z,63.46
2023-05-05T05:48:07.122Z,61.96
2023-05-05T05:51:15.526Z,61.46
2023-05-05T05:54:23.762Z,61.76
2023-05-05T05:57:32.244Z,62.78
2023-05-05T06:00:40.686Z,64.15
2023-05-05T06:03:52.915Z,64.08
2023-05-05T06:07:02.257Z,60.14
2023-05-05T06:10:26.770Z,55.66
2023-05-05T06:13:41.944Z,50.38
2023-05-05T06:16:50.631Z,44.90
2023-05-05T06:20:02.693Z,40.52
2023-05-05T06:23:11.717Z,40.58
2023-05-05T06:26:24.430Z,40.68
2023-05-05T06:29:32.885Z,39.55
2023-05-05T06:32:41.172Z,39.37
2023-05-05T06:35:53.414Z,43.39
2023-05-05T06:39:01.805Z,46.54
2023-05-05T06:42:10.030Z,46.05
2023-05-05T06:45:18.663Z,44.03
2023-05-05T06:48:28.131Z,43.43
2023-05-05T06:51:38.044Z,40.84
2023-05-05T06:54:46.650Z,41.25
2023-05-05T06:57:54.936Z,41.88
2023-05-05T07:01:03.977Z,40.23
2023-05-05T07:04:12.993Z,41.50
2023-05-05T07:07:22.846Z,40.42
2023-05-05T07:10:31.585Z,41.76
2023-05-05T07:13:40.038Z,43.27
2023-05-05T07:16:48.281Z,42.55
2023-05-05T07:19:56.930Z,42.43
2023-05-05T07:23:06.723Z,43.06
2023-05-05T07:26:15.503Z,44.28
2023-05-05T07:29:23.653Z,46.27
2023-05-05T07:32:32.444Z,46.17
2023-05-05T07:35:41.289Z,47.97
2023-05-05T07:38:51.071Z,49.66
2023-05-05T07:41:59.291Z,50.87
2023-05-05T07:45:09.106Z,46.68
2023-05-05T07:48:17.378Z,42.10
2023-05-05T07:51:26.459Z,40.69
2023-05-05T07:54:36.923Z,42.33
2023-05-05T07:57:45.175Z,43.42
2023-05-05T08:00:53.652Z,43.16
2023-05-05T08:04:02.203Z,40.46
2023-05-05T08:07:11.922Z,39.37
2023-05-05T08:10:22.859Z,38.61
2023-05-05T08:13:31.330Z,39.33
2023-05-05T08:16:39.685Z,36.51
2023-05-05T08:19:47.792Z,37.08
2023-05-05T08:22:56.277Z,36.06
2023-05-05T08:26:07.163Z,37.47
2023-05-05T08:29:15.355Z,41.29
2023-05-05T08:32:23.760Z,45.29
2023-05-05T08:35:31.930Z,39.60
2023-05-05T08:38:40.272Z,39.85
2023-05-05T08:41:50.780Z,37.35
2023-05-05T08:45:00.179Z,36.15
2023-05-05T08:48:09.785Z,41.19
2023-05-05T08:51:20.711Z,42.87
2023-05-05T08:54:35.920Z,43.24
2023-05-05T08:57:52.861Z,40.45
2023-05-05T09:01:01.804Z,37.56
2023-05-05T09:04:10.960Z,37.65
2023-05-05T09:07:19.882Z,38.79
2023-05-05T09:10:30.134Z,38.21
2023-05-05T09:13:40.068Z,41.00
2023-05-05T09:16:48.495Z,42.36
2023-05-05T09:20:05.734Z,40.93
2023-05-05T09:23:17.255Z,42.76
2023-05-05T09:26:25.739Z,45.65
2023-05-05T09:29:35.865Z,46.22
2023-05-05T09:32:49.814Z,44.10
2023-05-05T09:35:59.639Z,46.73
2023-05-05T09:39:08.334Z,46.76
2023-05-05T09:42:19.818Z,43.24
2023-05-05T09:45:29.514Z,45.64
2023-05-05T09:48:38.166Z,45.99
2023-05-05T09:51:47.998Z,41.97
2023-05-05T09:54:57.582Z,40.85
2023-05-05T09:58:20.261Z,42.64
2023-05-05T10:01:30.009Z,44.57
2023-05-05T10:04:38.335Z,43.68
2023-05-05T10:07:49.172Z,40.26
2023-05-05T10:11:01.053Z,38.51
2023-05-05T10:14:14.077Z,39.82
2023-05-05T10:17:24.944Z,40.58
2023-05-05T10:20:42.418Z,40.84
2023-05-05T10:24:04.655Z,42.03
2023-05-05T10:27:21.303Z,42.10
2023-05-05T10:30:55.590Z,40.85
2023-05-05T10:34:14.654Z,43.40
2023-05-05T10:37:28.264Z,40.20
2023-05-05T10:40:37.098Z,40.89
2023-05-05T10:43:53.774Z,37.06
2023-05-05T10:47:19.153Z,39.47
2023-05-05T10:50:36.914Z,36.12
2023-05-05T10:54:04.069Z,36.51
2023-05-05T10:57:18.356Z,34.59
2023-05-05T11:00:52.984Z,38.31
2023-05-05T11:04:32.221Z,39.62
2023-05-05T11:07:52.162Z,39.04
2023-05-05T11:11:11.843Z,40.33
2023-05-05T11:14:33.291Z,39.84
2023-05-05T11:18:07.342Z,42.10
2023-05-05T11:21:26.735Z,38.60
2023-05-05T11:24:43.155Z,37.20
2023-05-05T11:28:22.475Z,37.20
2023-05-05T11:31:52.798Z,35.97
2023-05-05T11:35:08.850Z,37.34
2023-05-05T11:38:22.787Z,35.86
2023-05-05T11:42:05.313Z,37.42
2023-05-05T11:45:26.459Z,44.37
2023-05-05T11:48:45.608Z,42.73
2023-05-05T11:52:00.674Z,41.68
2023-05-05T11:55:23.200Z,37.35
2023-05-05T11:58:33.455Z,37.83
2023-05-05T12:01:47.621Z,38.60
2023-05-05T12:04:58.321Z,36.71
2023-05-05T12:08:07.557Z,38.17
2023-05-05T12:11:22.024Z,38.33
2023-05-05T12:14:34.370Z,36.36
2023-05-05T12:17:46.269Z,37.17
2023-05-05T12:20:55.836Z,36.64
2023-05-05T12:24:04.044Z,36.48
2023-05-05T12:27:14.590Z,39.25
2023-05-05T12:30:25.708Z,41.83
2023-05-05T12:33:59.601Z,40.56
2023-05-05T12:37:21.091Z,38.63
2023-05-05T12:40:47.708Z,39.80
2023-05-05T12:43:58.604Z,42.30
2023-05-05T12:47:09.987Z,41.82
2023-05-05T12:50:33.945Z,40.08
2023-05-05T12:53:42.097Z,38.52
2023-05-05T12:56:50.283Z,40.81
2023-05-05T12:59:58.454Z,39.20
2023-05-05T13:03:10.492Z,38.56
2023-05-05T13:06:22.253Z,38.56
2023-05-05T13:09:31.324Z,39.19
2023-05-05T13:12:44.424Z,37.88
2023-05-05T13:15:59.006Z,37.74
2023-05-05T13:19:10.193Z,39.92
2023-05-05T13:22:19.022Z,37.34
2023-05-05T13:25:28.468Z,37.46
2023-05-05T13:28:37.373Z,35.46
2023-05-05T13:31:47.025Z,35.78
2023-05-05T13:34:57.857Z,35.68
2023-05-05T13:38:06.094Z,35.02
2023-05-05T13:41:14.251Z,37.68
2023-05-05T13:44:22.580Z,35.57
2023-05-05T13:47:31.180Z,34.23
2023-05-05T13:50:40.839Z,36.16
2023-05-05T13:53:49.192Z,35.50
2023-05-05T13:56:57.875Z,35.89
2023-05-05T14:00:07.902Z,39.20
2023-05-05T14:03:15.998Z,36.43
2023-05-05T14:06:25.964Z,35.36
2023-05-05T14:09:34.172Z,34.41
2023-05-05T14:12:42.238Z,38.70
2023-05-05T14:15:52.547Z,36.32
2023-05-05T14:19:00.705Z,35.48
2023-05-05T14:22:10.573Z,35.73
2023-05-05T14:25:19.211Z,36.88
2023-05-05T14:28:27.328Z,36.03
2023-05-05T14:31:36.282Z,38.67
2023-05-05T14:34:48.342Z,38.26
2023-05-05T14:38:00.276Z,36.46
2023-05-05T14:41:08.367Z,36.57
2023-05-05T14:44:16.713Z,37.45
2023-05-05T14:47:25.590Z,37.27
2023-05-05T14:50:33.681Z,38.54
2023-05-05T14:53:43.398Z,37.48
2023-05-05T14:56:51.664Z,36.79
2023-05-05T14:59:59.704Z,37.36
2023-05-05T15:03:08.064Z,36.74
2023-05-05T15:06:16.486Z,37.55
2023-05-05T15:09:25.925Z,39.04
2023-05-05T15:12:34.384Z,37.11
2023-05-05T15:15:42.569Z,38.00
2023-05-05T15:18:50.803Z,37.57
2023-05-05T15:21:58.955Z,37.21
2023-05-05T15:25:12.412Z,38.13
2023-05-05T15:28:20.892Z,39.47
2023-05-05T15:31:29.182Z,39.87
2023-05-05T15:34:37.554Z,40.99
2023-05-05T15:37:46.148Z,41.16
2023-05-05T15:40:55.960Z,41.35
2023-05-05T15:44:04.872Z,41.63
2023-05-05T15:47:13.315Z,41.51
2023-05-05T15:50:21.831Z,42.32
2023-05-05T15:53:30.468Z,42.03
2023-05-05T15:56:40.268Z,41.35
2023-05-05T15:59:52.241Z,40.73
2023-05-05T16:03:01.073Z,40.33
2023-05-05T16:06:10.308Z,38.94
2023-05-05T16:09:19.472Z,40.10
2023-05-05T16:12:29.276Z,40.25
2023-05-05T16:15:37.936Z,40.36
2023-05-05T16:18:46.029Z,40.13
2023-05-05T16:21:54.337Z,40.56
2023-05-05T16:25:03.050Z,41.86
2023-05-05T16:28:12.594Z,42.11
2023-05-05T16:31:21.060Z,41.20
2023-05-05T16:34:29.505Z,41.39
2023-05-05T16:37:37.917Z,41.76
2023-05-05T16:40:46.040Z,40.95
2023-05-05T16:43:56.518Z,40.75
2023-05-05T16:47:05.954Z,41.29
2023-05-05T16:50:14.086Z,41.37
2023-05-05T16:53:22.201Z,42.26
2023-05-05T16:56:30.770Z,42.88
2023-05-05T16:59:41.687Z,42.79
2023-05-05T17:02:50.159Z,43.35
2023-05-05T17:05:58.821Z,43.66
2023-05-05T17:12:15.824Z,44.64
2023-05-05T17:15:25.622Z,45.15
2023-05-05T17:18:33.964Z,44.81
2023-05-05T17:21:42.871Z,44.73
2023-05-05T17:24:51.203Z,45.95
2023-05-05T17:27:59.428Z,46.67
2023-05-05T17:31:09.320Z,47.11
2023-05-05T17:34:17.872Z,47.22
2023-05-05T17:37:26.179Z,47.78
2023-05-05T17:40:34.508Z,47.84
2023-05-05T17:43:42.671Z,48.42
2023-05-05T17:46:53.702Z,49.16
2023-05-05T17:50:02.356Z,48.96
2023-05-05T17:53:11.500Z,49.85
2023-05-05T17:56:19.660Z,50.18
2023-05-05T17:59:27.841Z,50.67
2023-05-05T18:02:38.584Z,50.54
2023-05-05T18:05:47.023Z,51.12
2023-05-05T18:08:55.291Z,51.95
2023-05-05T18:12:04.573Z,52.73
2023-05-05T18:15:13.434Z,53.39
2023-05-05T18:18:23.557Z,53.29
2023-05-05T18:21:32.029Z,53.59
2023-05-05T18:24:40.331Z,53.07
2023-05-05T18:27:49.003Z,54.33
2023-05-05T18:30:57.419Z,55.20
2023-05-05T18:34:07.493Z,54.92
2023-05-05T18:37:16.062Z,54.81
2023-05-05T18:40:24.603Z,55.89
2023-05-05T18:43:33.069Z,55.55
2023-05-05T18:46:43.067Z,57.20
2023-05-05T18:49:52.752Z,58.32
2023-05-05T18:53:01.206Z,59.56
2023-05-05T18:56:09.402Z,59.59
2023-05-05T18:59:17.949Z,60.42
2023-05-05T19:02:26.377Z,59.01
2023-05-05T19:05:36.202Z,59.37
2023-05-05T19:08:45.369Z,65.30
2023-05-05T19:11:53.882Z,65.83
2023-05-05T19:15:02.579Z,65.65
2023-05-05T19:18:11.640Z,70.19
2023-05-05T19:21:21.919Z,74.74
2023-05-05T19:24:30.528Z,77.94
2023-05-05T19:27:39.119Z,80.34
2023-05-05T19:30:48.696Z,83.18
2023-05-05T19:34:00.904Z,84.79
2023-05-05T19:37:11.475Z,85.72
2023-05-05T19:40:20.710Z,86.38
2023-05-05T19:43:29.463Z,86.82
2023-05-05T19:46:38.574Z,87.02
2023-05-05T19:49:47.676Z,87.41
2023-05-05T19:52:58.097Z,87.16
2023-05-05T19:56:07.452Z,88.84
2023-05-05T19:59:16.179Z,89.53
2023-05-05T20:02:26.619Z,88.89
2023-05-05T20:05:35.774Z,89.27
2023-05-05T20:08:47.073Z,89.17
2023-05-05T20:11:57.430Z,89.51
2023-05-05T20:15:06.662Z,89.09
2023-05-05T20:18:15.150Z,89.02
2023-05-05T20:21:23.879Z,89.66
2023-05-05T20:24:34.432Z,88.78
2023-05-05T20:27:43.553Z,88.20
2023-05-05T20:30:52.372Z,88.28
2023-05-05T20:34:01.356Z,88.48
2023-05-05T20:37:11.737Z,89.65
2023-05-05T20:40:23.721Z,89.50
2023-05-05T20:43:32.240Z,88.35
2023-05-05T20:46:41.108Z,88.90
2023-05-05T20:49:49.968Z,89.30
2023-05-05T20:52:58.465Z,89.21
2023-05-05T20:56:09.462Z,88.50
2023-05-05T20:59:18.477Z,88.51
2023-05-05T21:02:27.440Z,89.27
2023-05-05T21:05:37.476Z,88.51
2023-05-05T21:08:47.146Z,87.99
2023-05-05T21:11:56.968Z,88.80
2023-05-05T21:15:07.698Z,87.93
2023-05-05T21:18:16.348Z,88.13
2023-05-05T21:21:25.026Z,88.48
2023-05-05T21:24:33.587Z,89.09
2023-05-05T21:27:43.886Z,88.92
2023-05-05T21:34:04.576Z,88.72
2023-05-05T21:37:13.643Z,88.81
2023-05-05T21:40:22.773Z,88.79
2023-05-05T21:43:33.016Z,88.71
2023-05-05T21:46:41.643Z,88.89
2023-05-05T21:49:50.400Z,88.76
2023-05-05T21:52:59.190Z,89.32
2023-05-05T21:56:09.130Z,88.69
2023-05-05T21:59:19.480Z,88.54
2023-05-05T22:02:28.309Z,89.45
2023-05-05T22:05:37.116Z,89.38
2023-05-05T22:08:45.942Z,90.26
2023-05-05T22:11:54.583Z,90.14
2023-05-05T22:15:04.744Z,89.24
2023-05-05T22:18:13.475Z,89.48
2023-05-05T22:21:22.645Z,89.11
2023-05-05T22:24:31.671Z,89.13
2023-05-05T22:27:41.449Z,89.65
2023-05-05T22:30:51.384Z,88.73
2023-05-05T22:34:00.155Z,89.33
2023-05-05T22:37:10.071Z,90.77
2023-05-05T22:40:18.673Z,90.40
2023-05-05T22:43:27.339Z,90.39
2023-05-05T22:46:37.450Z,90.50
2023-05-05T22:49:46.851Z,89.78
2023-05-05T22:52:55.550Z,89.35
2023-05-05T22:56:04.723Z,89.29
2023-05-05T22:59:13.627Z,89.67
2023-05-05T23:02:26.540Z,89.54
2023-05-05T23:05:36.080Z,91.19
2023-05-05T23:08:44.934Z,91.66
2023-05-05T23:11:53.571Z,91.10
2023-05-05T23:15:02.442Z,91.10
2023-05-05T23:18:12.503Z,91.03
2023-05-05T23:21:21.343Z,91.59
2023-05-05T23:24:30.832Z,90.63
2023-05-05T23:27:41.086Z,90.61
2023-05-05T23:30:50.449Z,90.91
2023-05-05T23:34:01.006Z,90.89
2023-05-05T23:37:09.745Z,91.22
2023-05-05T23:40:18.577Z,91.76
2023-05-05T23:43:27.418Z,91.18
2023-05-05T23:46:36.297Z,91.08
2023-05-05T23:49:46.513Z,90.35
2023-05-05T23:52:55.375Z,90.79
2023-05-05T23:56:04.114Z,90.74
2023-05-05T23:59:12.649Z,90.72
